createdAt,value
2018-04-24T00:01:37.254Z,100210.67
2018-04-24T00:04:03.956Z,100206.37
2018-04-24T00:06:35.078Z,100208.80
2018-04-24T00:09:01.818Z,100207.80
2018-04-24T00:11:28.506Z,100203.70
2018-04-24T00:13:55.084Z,100203.22
2018-04-24T00:16:25.147Z,100202.42
2018-04-24T00:18:51.804Z,100200.91
2018-04-24T00:21:18.546Z,100195.03
2018-04-24T00:23:45.273Z,100192.92
2018-04-24T00:26:17.778Z,100197.59
2018-04-24T00:28:44.301Z,100199.39
2018-04-24T00:31:11.012Z,100197.46
2018-04-24T00:33:37.606Z,100206.67
2018-04-24T00:36:07.206Z,100201.03
2018-04-24T00:38:33.833Z,100204.47
2018-04-24T00:41:00.469Z,100204.72
2018-04-24T00:43:27.212Z,100195.88
2018-04-24T00:45:54.928Z,100195.31
2018-04-24T00:48:21.511Z,100198.95
2018-04-24T00:50:48.722Z,100192.74
2018-04-24T00:53:27.286Z,100195.64
2018-04-24T00:55:53.898Z,100202.06
2018-04-24T00:58:20.770Z,100202.11
2018-04-24T01:00:47.504Z,100198.12
2018-04-24T01:03:14.125Z,100196.50
2018-04-24T01:05:46.892Z,100199.41
2018-04-24T01:08:13.637Z,100196.76
2018-04-24T01:10:40.100Z,100192.20
2018-04-24T01:13:06.705Z,100195.45
2018-04-24T01:15:34.303Z,100190.06
2018-04-24T01:18:00.960Z,100192.85
2018-04-24T01:20:27.672Z,100196.11
2018-04-24T01:22:54.517Z,100195.07
2018-04-24T01:25:28.313Z,100186.45
2018-04-24T01:27:55.035Z,100196.37
2018-04-24T01:30:21.601Z,100191.34
2018-04-24T01:32:48.238Z,100196.09
2018-04-24T01:35:18.508Z,100193.72
2018-04-24T01:37:45.050Z,100196.23
2018-04-24T01:40:11.718Z,100188.42
2018-04-24T01:42:38.341Z,100192.66
2018-04-24T01:45:06.102Z,100187.92
2018-04-24T01:47:32.730Z,100190.79
2018-04-24T01:49:59.310Z,100187.44
2018-04-24T01:52:25.949Z,100185.81
2018-04-24T01:54:55.949Z,100187.88
2018-04-24T01:57:22.492Z,100184.33
2018-04-24T01:59:49.135Z,100180.11
2018-04-24T02:02:15.839Z,100178.91
2018-04-24T02:04:45.811Z,100178.18
2018-04-24T02:07:12.475Z,100182.95
2018-04-24T02:09:39.048Z,100183.24
2018-04-24T02:12:05.658Z,100178.45
2018-04-24T02:14:33.604Z,100182.66
2018-04-24T02:17:00.087Z,100180.66
2018-04-24T02:19:26.728Z,100186.72
2018-04-24T02:21:53.435Z,100184.25
2018-04-24T02:24:24.417Z,100186.21
2018-04-24T02:26:51.466Z,100184.09
2018-04-24T02:29:18.097Z,100186.36
2018-04-24T02:31:44.682Z,100185.47
2018-04-24T02:34:11.372Z,100186.21
2018-04-24T02:36:39.231Z,100189.21
2018-04-24T02:39:05.828Z,100189.65
2018-04-24T02:41:32.381Z,100192.38
2018-04-24T02:43:58.985Z,100190.77
2018-04-24T02:46:35.906Z,100183.40
2018-04-24T02:49:02.667Z,100185.20
2018-04-24T02:51:29.364Z,100184.53
2018-04-24T02:53:56.056Z,100187.73
2018-04-24T02:56:27.020Z,100182.27
2018-04-24T02:58:53.729Z,100180.10
2018-04-24T03:01:20.360Z,100182.89
2018-04-24T03:03:47.010Z,100183.17
2018-04-24T03:06:14.810Z,100180.91
2018-04-24T03:08:41.470Z,100185.05
2018-04-24T03:11:08.085Z,100187.50
2018-04-24T03:13:34.815Z,100192.92
2018-04-24T03:16:04.920Z,100191.60
2018-04-24T03:18:31.470Z,100190.44
2018-04-24T03:20:58.097Z,100192.00
2018-04-24T03:23:24.733Z,100189.52
2018-04-24T03:25:57.245Z,100190.75
2018-04-24T03:28:23.782Z,100193.73
2018-04-24T03:30:50.394Z,100192.69
2018-04-24T03:33:17.074Z,100187.92
2018-04-24T03:35:44.741Z,100185.45
2018-04-24T03:38:11.226Z,100191.12
2018-04-24T03:40:37.822Z,100201.48
2018-04-24T03:43:04.449Z,100192.67
2018-04-24T03:45:34.651Z,100198.02
2018-04-24T03:48:01.413Z,100195.63
2018-04-24T03:50:28.113Z,100195.53
2018-04-24T03:52:54.639Z,100197.38
2018-04-24T03:55:21.392Z,100201.62
2018-04-24T03:57:48.066Z,100205.25
2018-04-24T04:00:14.635Z,100201.54
2018-04-24T04:02:41.204Z,100208.88
2018-04-24T04:05:11.067Z,100211.81
2018-04-24T04:07:37.790Z,100205.88
2018-04-24T04:10:04.254Z,100204.59
2018-04-24T04:12:30.871Z,100209.24
2018-04-24T04:15:03.837Z,100211.34
2018-04-24T04:17:42.528Z,100201.20
2018-04-24T04:20:21.074Z,100205.33
2018-04-24T04:22:59.645Z,100202.80
2018-04-24T04:25:29.266Z,100206.72
2018-04-24T04:27:55.837Z,100200.23
2018-04-24T04:30:22.389Z,100210.97
2018-04-24T04:32:49.166Z,100208.80
2018-04-24T04:35:19.398Z,100212.19
2018-04-24T04:37:46.650Z,100205.30
2018-04-24T04:40:13.485Z,100207.61
2018-04-24T04:42:40.097Z,100210.81
2018-04-24T04:45:07.866Z,100210.30
2018-04-24T04:47:34.422Z,100212.98
2018-04-24T04:50:01.076Z,100214.95
2018-04-24T04:52:27.782Z,100214.56
2018-04-24T04:54:59.777Z,100213.45
2018-04-24T04:57:26.391Z,100216.47
2018-04-24T04:59:53.146Z,100208.66
2018-04-24T05:02:19.848Z,100214.37
2018-04-24T05:04:49.636Z,100202.80
2018-04-24T05:07:16.269Z,100204.95
2018-04-24T05:09:42.844Z,100202.30
2018-04-24T05:12:09.600Z,100208.50
2018-04-24T05:14:42.768Z,100204.04
2018-04-24T05:17:09.488Z,100203.77
2018-04-24T05:19:36.156Z,100202.03
2018-04-24T05:22:02.718Z,100209.16
2018-04-24T05:24:30.349Z,100204.44
2018-04-24T05:26:57.014Z,100207.98
2018-04-24T05:29:23.718Z,100202.92
2018-04-24T05:31:50.348Z,100211.66
2018-04-24T05:34:24.541Z,100209.30
2018-04-24T05:36:51.253Z,100209.81
2018-04-24T05:39:17.826Z,100210.63
2018-04-24T05:41:44.436Z,100213.19
2018-04-24T05:44:12.053Z,100215.47
2018-04-24T05:46:38.742Z,100217.25
2018-04-24T05:49:05.455Z,100216.42
2018-04-24T05:51:31.982Z,100220.23
2018-04-24T05:54:11.289Z,100223.47
2018-04-24T05:56:37.922Z,100219.34
2018-04-24T05:59:04.466Z,100229.97
2018-04-24T06:01:31.063Z,100228.70
2018-04-24T06:03:57.763Z,100225.65
2018-04-24T06:06:24.399Z,100226.98
2018-04-24T06:08:50.976Z,100227.55
2018-04-24T06:11:17.704Z,100225.05
2018-04-24T06:13:44.454Z,100224.72
2018-04-24T06:16:11.085Z,100226.34
2018-04-24T06:18:37.780Z,100222.64
2018-04-24T06:21:04.317Z,100221.56
2018-04-24T06:23:30.981Z,100226.66
2018-04-24T06:26:10.805Z,100222.69
2018-04-24T06:28:38.095Z,100218.64
2018-04-24T06:31:04.709Z,100217.39
2018-04-24T06:33:31.244Z,100225.94
2018-04-24T06:36:02.070Z,100221.34
2018-04-24T06:38:28.605Z,100224.45
2018-04-24T06:40:55.218Z,100226.36
2018-04-24T06:43:21.910Z,100224.64
2018-04-24T06:46:02.758Z,100226.75
2018-04-24T06:48:29.309Z,100227.53
2018-04-24T06:50:55.781Z,100224.64
2018-04-24T06:53:22.471Z,100228.40
2018-04-24T06:55:52.375Z,100233.89
2018-04-24T06:58:18.933Z,100230.36
2018-04-24T07:00:45.612Z,100236.19
2018-04-24T07:03:12.236Z,100226.13
2018-04-24T07:05:42.740Z,100228.49
2018-04-24T07:08:09.350Z,100219.69
2018-04-24T07:10:36.044Z,100235.76
2018-04-24T07:13:02.569Z,100229.49
2018-04-24T07:15:39.690Z,100222.77
2018-04-24T07:18:06.281Z,100223.08
2018-04-24T07:20:32.929Z,100230.59
2018-04-24T07:22:59.604Z,100227.34
2018-04-24T07:25:50.823Z,100224.00
2018-04-24T07:28:17.557Z,100225.72
2018-04-24T07:30:44.240Z,100225.72
2018-04-24T07:33:10.808Z,100230.11
2018-04-24T07:35:40.543Z,100226.94
2018-04-24T07:38:07.110Z,100223.95
2018-04-24T07:40:33.740Z,100225.48
2018-04-24T07:43:00.425Z,100225.05
2018-04-24T07:45:31.932Z,100218.59
2018-04-24T07:47:58.433Z,100219.19
2018-04-24T07:50:25.045Z,100216.91
2018-04-24T07:52:51.762Z,100214.63
2018-04-24T07:55:24.377Z,100214.27
2018-04-24T07:57:50.882Z,100217.36
2018-04-24T08:00:17.524Z,100211.64
2018-04-24T08:02:44.186Z,100210.81
2018-04-24T08:05:18.032Z,100209.98
2018-04-24T08:07:44.597Z,100218.83
2018-04-24T08:10:11.182Z,100218.95
2018-04-24T08:12:37.786Z,100207.11
2018-04-24T08:15:10.147Z,100210.27
2018-04-24T08:17:36.710Z,100205.06
2018-04-24T08:20:03.282Z,100209.03
2018-04-24T08:22:39.712Z,100208.98
2018-04-24T08:25:06.669Z,100213.59
2018-04-24T08:27:34.374Z,100206.67
2018-04-24T08:30:01.085Z,100204.17
2018-04-24T08:32:27.641Z,100203.75
2018-04-24T08:35:01.602Z,100203.13
2018-04-24T08:37:28.162Z,100198.91
2018-04-24T08:39:54.662Z,100201.47
2018-04-24T08:42:21.265Z,100189.80
2018-04-24T08:44:48.038Z,100190.80
2018-04-24T08:47:14.717Z,100191.92
2018-04-24T08:49:41.289Z,100187.36
2018-04-24T08:52:07.922Z,100191.22
2018-04-24T08:54:36.424Z,100181.88
2018-04-24T08:57:02.978Z,100177.22
2018-04-24T08:59:29.679Z,100177.06
2018-04-24T09:01:56.395Z,100180.69
2018-04-24T09:04:27.746Z,100179.91
2018-04-24T09:06:54.230Z,100175.47
2018-04-24T09:09:20.842Z,100176.66
2018-04-24T09:11:47.535Z,100170.51
2018-04-24T09:14:20.673Z,100172.81
2018-04-24T09:16:47.246Z,100160.28
2018-04-24T09:19:13.825Z,100158.39
2018-04-24T09:21:40.493Z,100159.71
2018-04-24T09:24:11.214Z,100154.89
2018-04-24T09:26:37.949Z,100155.90
2018-04-24T09:29:04.653Z,100144.25
2018-04-24T09:31:38.166Z,100141.03
2018-04-24T09:34:11.087Z,100145.55
2018-04-24T09:36:37.677Z,100141.55
2018-04-24T09:39:05.277Z,100143.30
2018-04-24T09:41:31.924Z,100139.69
2018-04-24T09:43:58.801Z,100135.95
2018-04-24T09:46:25.398Z,100136.86
2018-04-24T09:48:52.390Z,100136.48
2018-04-24T09:51:18.931Z,100139.23
2018-04-24T09:53:45.567Z,100136.75
2018-04-24T09:56:12.098Z,100127.17
2018-04-24T09:58:38.810Z,100127.44
2018-04-24T10:01:05.437Z,100130.53
2018-04-24T10:03:37.950Z,100129.48
2018-04-24T10:06:04.498Z,100122.19
2018-04-24T10:08:31.219Z,100126.94
2018-04-24T10:10:57.769Z,100122.34
2018-04-24T10:13:29.446Z,100122.84
2018-04-24T10:15:56.004Z,100117.88
2018-04-24T10:18:22.507Z,100125.66
2018-04-24T10:20:49.005Z,100117.92
2018-04-24T10:23:17.005Z,100118.56
2018-04-24T10:25:43.610Z,100109.16
2018-04-24T10:28:10.274Z,100115.91
2018-04-24T10:30:36.764Z,100113.72
2018-04-24T10:33:03.440Z,100123.16
2018-04-24T10:35:30.201Z,100106.86
2018-04-24T10:37:56.918Z,100110.46
2018-04-24T10:40:23.564Z,100103.77
2018-04-24T10:42:51.349Z,100105.97
2018-04-24T10:45:23.504Z,100099.28
2018-04-24T10:47:50.113Z,100102.11
2018-04-24T10:50:16.681Z,100099.20
2018-04-24T10:52:43.395Z,100094.20
2018-04-24T10:55:13.341Z,100104.77
2018-04-24T10:57:40.124Z,100094.04
2018-04-24T11:00:06.616Z,100095.80
2018-04-24T11:02:34.043Z,100098.28
2018-04-24T11:05:01.905Z,100094.88
2018-04-24T11:07:29.338Z,100095.95
2018-04-24T11:09:56.877Z,100100.73
2018-04-24T11:12:23.741Z,100088.53
2018-04-24T11:14:54.044Z,100099.98
2018-04-24T11:17:21.233Z,100083.62
2018-04-24T11:19:47.774Z,100082.97
2018-04-24T11:22:14.505Z,100073.58
2018-04-24T11:24:42.381Z,100071.94
2018-04-24T11:27:08.910Z,100070.05
2018-04-24T11:29:35.406Z,100070.85
2018-04-24T11:32:01.982Z,100073.45
2018-04-24T11:34:35.231Z,100062.44
2018-04-24T11:37:01.877Z,100059.67
2018-04-24T11:39:28.552Z,100062.09
2018-04-24T11:41:55.141Z,100057.04
2018-04-24T11:44:26.282Z,100052.35
2018-04-24T11:46:52.873Z,100053.16
2018-04-24T11:49:19.592Z,100051.91
2018-04-24T11:51:46.649Z,100051.80
2018-04-24T11:54:26.374Z,100050.70
2018-04-24T11:56:53.091Z,100052.71
2018-04-24T11:59:19.591Z,100056.77
2018-04-24T12:01:46.201Z,100053.89
2018-04-24T12:04:22.801Z,100046.53
2018-04-24T12:06:49.345Z,100049.16
2018-04-24T12:09:16.080Z,100046.09
2018-04-24T12:11:42.757Z,100034.27
2018-04-24T12:14:16.037Z,100040.08
2018-04-24T12:16:42.690Z,100038.98
2018-04-24T12:19:09.330Z,100036.23
2018-04-24T12:21:36.018Z,100033.03
2018-04-24T12:24:20.218Z,100028.66
2018-04-24T12:26:47.517Z,100028.97
2018-04-24T12:29:14.176Z,100023.75
2018-04-24T12:31:40.810Z,100019.98
2018-04-24T12:34:07.386Z,100022.74
2018-04-24T12:36:34.078Z,100015.19
2018-04-24T12:39:00.696Z,100020.27
2018-04-24T12:41:27.258Z,100013.90
2018-04-24T12:43:53.916Z,100007.42
2018-04-24T12:46:20.526Z,100006.42
2018-04-24T12:48:47.372Z,99999.74
2018-04-24T12:51:13.905Z,100000.34
2018-04-24T12:53:40.754Z,100005.22
2018-04-24T12:56:07.462Z,99996.42
2018-04-24T12:58:34.093Z,99992.87
2018-04-24T13:01:00.790Z,99991.34
2018-04-24T13:03:30.590Z,99986.56
2018-04-24T13:05:57.144Z,99981.44
2018-04-24T13:08:23.825Z,99975.12
2018-04-24T13:10:50.700Z,99980.89
2018-04-24T13:13:17.370Z,99981.95
2018-04-24T13:15:44.081Z,99974.43
2018-04-24T13:18:10.701Z,99975.55
2018-04-24T13:20:37.361Z,99963.97
2018-04-24T13:23:11.072Z,99977.48
2018-04-24T13:25:37.660Z,99975.08
2018-04-24T13:28:04.320Z,99963.46
2018-04-24T13:30:31.042Z,99966.75
2018-04-24T13:33:04.922Z,99957.36
2018-04-24T13:35:35.492Z,99964.23
2018-04-24T13:38:02.118Z,99959.23
2018-04-24T13:40:28.710Z,99966.67
2018-04-24T13:42:58.966Z,99962.95
2018-04-24T13:45:25.665Z,99973.97
2018-04-24T13:47:52.330Z,99967.89
2018-04-24T13:50:18.997Z,99961.82
2018-04-24T13:52:49.137Z,99961.73
2018-04-24T13:55:15.816Z,99959.62
2018-04-24T13:57:42.409Z,99962.63
2018-04-24T14:00:09.007Z,99961.21
2018-04-24T14:02:35.712Z,99964.72
2018-04-24T14:05:02.343Z,99969.05
2018-04-24T14:07:29.031Z,99962.07
2018-04-24T14:09:55.770Z,99967.89
2018-04-24T14:12:22.430Z,99966.53
2018-04-24T14:14:50.181Z,99965.36
2018-04-24T14:17:16.846Z,99970.75
2018-04-24T14:19:43.440Z,99974.68
2018-04-24T14:22:10.058Z,99970.34
2018-04-24T14:24:38.004Z,99977.59
2018-04-24T14:27:04.665Z,99975.25
2018-04-24T14:29:31.211Z,99977.67
2018-04-24T14:31:57.952Z,99974.33
2018-04-24T14:34:31.882Z,99974.83
2018-04-24T14:36:58.981Z,99978.20
2018-04-24T14:39:25.579Z,99985.92
2018-04-24T14:41:52.410Z,99986.48
2018-04-24T14:44:19.215Z,99983.33
2018-04-24T14:46:45.849Z,99983.83
2018-04-24T14:49:12.557Z,99978.52
2018-04-24T14:51:39.322Z,99989.14
2018-04-24T14:54:05.908Z,99995.25
2018-04-24T14:56:32.505Z,99988.97
2018-04-24T14:58:59.291Z,99990.23
2018-04-24T15:01:25.920Z,99993.55
2018-04-24T15:04:07.260Z,99988.84
2018-04-24T15:06:41.833Z,99985.27
2018-04-24T15:09:08.478Z,99979.94
2018-04-24T15:11:35.201Z,99975.66
2018-04-24T15:14:05.838Z,99985.31
2018-04-24T15:16:32.401Z,99980.59
2018-04-24T15:18:59.032Z,99974.38
2018-04-24T15:21:25.920Z,99971.83
2018-04-24T15:24:02.895Z,99963.05
2018-04-24T15:26:29.567Z,99977.23
2018-04-24T15:28:56.207Z,99974.11
2018-04-24T15:31:22.877Z,99972.58
2018-04-24T15:33:49.956Z,99977.66
2018-04-24T15:36:16.624Z,99965.98
2018-04-24T15:38:43.186Z,99955.33
2018-04-24T15:41:09.773Z,99951.30
2018-04-24T15:43:36.597Z,99954.51
2018-04-24T15:46:03.245Z,99953.45
2018-04-24T15:48:29.826Z,99960.86
2018-04-24T15:50:56.367Z,99954.89
2018-04-24T15:53:24.097Z,99958.19
2018-04-24T15:55:50.777Z,99957.47
2018-04-24T15:58:17.374Z,99951.44
2018-04-24T16:00:44.033Z,99943.33
2018-04-24T16:03:14.385Z,99948.97
2018-04-24T16:12:36.796Z,99957.11
2018-04-24T16:15:03.354Z,99958.25
2018-04-24T16:17:30.003Z,99956.67
2018-04-24T16:19:56.599Z,99955.55
2018-04-24T16:22:23.285Z,99955.53
2018-04-24T16:24:50.006Z,99961.50
2018-04-24T16:27:16.686Z,99961.82
2018-04-24T16:29:43.322Z,99961.16
2018-04-24T16:32:09.877Z,99969.39
2018-04-24T16:34:36.499Z,99964.21
2018-04-24T16:37:03.226Z,99968.41
2018-04-24T16:39:29.989Z,99974.12
2018-04-24T16:41:56.646Z,99970.63
2018-04-24T16:44:36.347Z,99970.61
2018-04-24T16:47:02.856Z,99970.25
2018-04-24T16:49:29.425Z,99977.06
2018-04-24T16:51:56.961Z,99968.42
2018-04-24T16:54:29.810Z,99978.32
2018-04-24T16:56:56.377Z,99984.59
2018-04-24T16:59:22.979Z,99984.39
2018-04-24T17:01:49.699Z,99981.11
2018-04-24T17:04:22.950Z,99988.55
2018-04-24T17:06:49.703Z,99994.36
2018-04-24T17:09:16.371Z,99988.55
2018-04-24T17:11:43.086Z,99994.81
2018-04-24T17:14:10.629Z,99999.74
2018-04-24T17:16:37.293Z,100002.89
2018-04-24T17:19:04.030Z,99997.42
2018-04-24T17:21:30.711Z,100003.40
2018-04-24T17:23:57.483Z,100005.63
2018-04-24T17:26:24.694Z,100001.00
2018-04-24T17:28:51.853Z,100007.97
2018-04-24T17:31:18.916Z,100015.45
2018-04-24T17:33:49.440Z,100019.68
2018-04-24T17:36:16.181Z,100015.75
2018-04-24T17:38:42.922Z,100016.64
2018-04-24T17:41:10.032Z,100017.09
2018-04-24T17:43:36.961Z,100023.53
2018-04-24T17:46:03.672Z,100023.97
2018-04-24T17:48:30.370Z,100028.66
2018-04-24T17:50:57.084Z,100028.73
2018-04-24T17:53:28.350Z,100026.23
2018-04-24T17:55:55.082Z,100034.86
2018-04-24T17:58:21.798Z,100028.47
2018-04-24T18:00:48.490Z,100041.61
2018-04-24T18:03:19.194Z,100042.28
2018-04-24T18:05:45.931Z,100055.27
2018-04-24T18:08:12.615Z,100041.39
2018-04-24T18:10:39.240Z,100044.73
2018-04-24T18:13:06.944Z,100055.59
2018-04-24T18:15:33.526Z,100056.71
2018-04-24T18:18:00.681Z,100058.12
2018-04-24T18:20:27.305Z,100056.59
2018-04-24T18:22:57.830Z,100062.72
2018-04-24T18:25:24.444Z,100060.98
2018-04-24T18:27:51.187Z,100058.69
2018-04-24T18:30:17.730Z,100058.30
2018-04-24T18:32:51.421Z,100057.20
2018-04-24T18:35:17.925Z,100062.97
2018-04-24T18:37:44.591Z,100062.64
2018-04-24T18:40:11.241Z,100069.42
2018-04-24T18:42:37.952Z,100074.99
2018-04-24T18:45:04.489Z,100071.55
2018-04-24T18:47:31.203Z,100075.61
2018-04-24T18:49:57.724Z,100077.84
2018-04-24T18:52:43.613Z,100074.69
2018-04-24T18:55:10.330Z,100078.30
2018-04-24T18:57:37.038Z,100078.09
2018-04-24T19:00:04.114Z,100072.55
2018-04-24T19:02:40.882Z,100073.73
2018-04-24T19:05:07.650Z,100068.55
2018-04-24T19:07:34.279Z,100058.88
2018-04-24T19:10:01.043Z,100063.39
2018-04-24T19:12:32.407Z,100056.17
2018-04-24T19:14:59.054Z,100057.09
2018-04-24T19:17:25.663Z,100057.06
2018-04-24T19:19:52.976Z,100057.77
2018-04-24T19:22:23.655Z,100059.28
2018-04-24T19:24:56.546Z,100057.27
2018-04-24T19:27:23.400Z,100058.36
2018-04-24T19:29:50.111Z,100067.25
2018-04-24T19:32:22.968Z,100067.71
2018-04-24T19:34:49.655Z,100068.29
2018-04-24T19:37:16.386Z,100076.02
2018-04-24T19:39:49.595Z,100076.41
2018-04-24T19:42:16.283Z,100074.67
2018-04-24T19:44:42.965Z,100069.86
2018-04-24T19:47:09.725Z,100075.19
2018-04-24T19:49:42.411Z,100068.95
2018-04-24T19:52:12.389Z,100064.40
2018-04-24T19:54:39.017Z,100068.03
2018-04-24T19:57:05.697Z,100064.58
2018-04-24T19:59:32.255Z,100061.95
2018-04-24T20:02:04.377Z,100065.03
2018-04-24T20:04:31.067Z,100066.27
2018-04-24T20:06:57.678Z,100071.30
2018-04-24T20:09:24.342Z,100073.72
2018-04-24T20:12:10.401Z,100073.52
2018-04-24T20:14:37.127Z,100077.10
2018-04-24T20:17:03.698Z,100074.39
2018-04-24T20:19:30.260Z,100080.53
2018-04-24T20:21:57.178Z,100077.80
2018-04-24T20:24:23.795Z,100077.81
2018-04-24T20:26:50.447Z,100082.27
2018-04-24T20:29:17.145Z,100081.74
2018-04-24T20:31:43.930Z,100079.76
2018-04-24T20:34:10.651Z,100074.50
2018-04-24T20:36:37.278Z,100074.64
2018-04-24T20:39:04.834Z,100066.65
2018-04-24T20:41:31.433Z,100063.56
2018-04-24T20:43:59.010Z,100066.39
2018-04-24T20:46:26.818Z,100067.20
2018-04-24T20:48:53.574Z,100070.42
2018-04-24T20:51:20.315Z,100058.02
2018-04-24T20:53:50.844Z,100055.47
2018-04-24T20:56:17.481Z,100058.71
2018-04-24T20:58:44.068Z,100061.64
2018-04-24T21:01:10.767Z,100058.58
2018-04-24T21:03:43.433Z,100060.81
2018-04-24T21:06:10.234Z,100062.17
2018-04-24T21:08:36.770Z,100061.59
2018-04-24T21:11:03.421Z,100068.11
2018-04-24T21:13:34.713Z,100070.87
2018-04-24T21:16:01.231Z,100067.81
2018-04-24T21:18:27.869Z,100065.19
2018-04-24T21:20:54.541Z,100063.57
2018-04-24T21:23:25.969Z,100056.63
2018-04-24T21:25:52.614Z,100049.66
2018-04-24T21:28:19.165Z,100054.94
2018-04-24T21:30:45.787Z,100069.40
2018-04-24T21:33:15.514Z,100072.23
2018-04-24T21:35:42.233Z,100049.59
2018-04-24T21:38:08.886Z,100042.06
2018-04-24T21:40:35.593Z,100044.48
2018-04-24T21:43:05.538Z,100058.25
2018-04-24T21:45:32.192Z,100034.82
2018-04-24T21:47:58.809Z,100056.05
2018-04-24T21:50:25.292Z,100061.97
2018-04-24T21:52:53.009Z,100046.63
2018-04-24T21:55:19.713Z,100049.05
2018-04-24T21:57:46.430Z,100054.62
2018-04-24T22:00:14.868Z,100056.58
2018-04-24T22:02:41.673Z,100057.80
2018-04-24T22:05:09.052Z,100055.05
2018-04-24T22:07:35.798Z,100050.66
2018-04-24T22:10:02.469Z,100062.53
2018-04-24T22:12:29.473Z,100057.87
2018-04-24T22:14:56.504Z,100055.94
2018-04-24T22:17:23.165Z,100062.83
2018-04-24T22:19:49.914Z,100071.16
2018-04-24T22:22:36.693Z,100066.46
2018-04-24T22:25:03.307Z,100071.74
2018-04-24T22:27:29.828Z,100064.88
2018-04-24T22:29:56.562Z,100060.34
2018-04-24T22:32:30.829Z,100062.84
2018-04-24T22:34:58.590Z,100047.72
2018-04-24T22:37:25.278Z,100053.80
2018-04-24T22:39:52.175Z,100049.81
2018-04-24T22:42:23.292Z,100045.72
2018-04-24T22:44:50.131Z,100056.55
2018-04-24T22:47:16.867Z,100090.48
2018-04-24T22:49:43.572Z,100118.16
2018-04-24T22:52:10.440Z,100124.03
2018-04-24T22:54:37.114Z,100101.06
2018-04-24T22:57:03.637Z,100093.53
2018-04-24T22:59:31.279Z,100094.59
2018-04-24T23:02:01.143Z,100102.80
2018-04-24T23:04:27.726Z,100100.88
2018-04-24T23:06:54.467Z,100105.42
2018-04-24T23:09:21.121Z,100095.30
2018-04-24T23:11:59.605Z,100093.23
2018-04-24T23:14:44.330Z,100097.78
2018-04-24T23:17:29.571Z,100082.25
2018-04-24T23:20:14.175Z,100068.88
2018-04-24T23:22:41.721Z,100074.73
2018-04-24T23:25:08.346Z,100084.59
2018-04-24T23:27:35.113Z,100083.84
2018-04-24T23:30:01.763Z,100083.11
2018-04-24T23:32:32.381Z,100087.92
2018-04-24T23:34:58.990Z,100082.68
2018-04-24T23:37:25.757Z,100080.58
2018-04-24T23:39:52.326Z,100085.58
2018-04-24T23:42:23.616Z,100090.58
2018-04-24T23:44:50.356Z,100084.52
2018-04-24T23:47:17.021Z,100074.45
2018-04-24T23:49:43.771Z,100074.60
2018-04-24T23:52:13.702Z,100091.04
2018-04-24T23:54:40.782Z,100083.44
2018-04-24T23:57:07.517Z,100086.05
2018-04-24T23:59:37.413Z,100082.30
